Alma, Georgia
Current Conditions -  °F | °C
As of 3:53 AM on Wednesday 26 Nov 2014 (Local Time) from KAMG Reporting Station
Light Rain Light Rain  
Wind Chill:   Ceiling: 900
Heat Index:   Visibility: 5mi
Dew Point:   Wind: 14mph
Humidity: 93%   Direction: 320°NW
Pressure: 29.98"   Gusts: NA
Location:  31.54°N, 82.46°W
Report Text: KAMG 260853Z AUTO 32012KT 5SM -RA BR BKN009 OVC012 08/07 A2998 RMK AO2 RAE09B29 SLP149 P0001 60012 T00830072 53016
Loading
Personal Weather Stations






























Interactive Weather Map New forecast layout! Learn more

10-Day Weather Forecast

Advertisements
Track Severe Weather on mobile